Time,TemperatureF,DewpointF,PressureIn,WindDirection,WindDirectionDegrees,WindSpeedMPH,WindSpeedGustMPH,Humidity,HourlyPrecipIn,Conditions,Clouds,dailyrainin,SoftwareType,DateUTC
2013-08-04 00:00:00,77.4,76.2,30.13,ENE,70,0.0,0.0,96,0.00,,,0.00,Wunderground v.1.15,2013-08-04 04:00:00,
2013-08-04 00:05:00,77.3,76.1,30.13,ENE,70,0.0,0.0,96,0.00,,,0.00,Wunderground v.1.15,2013-08-04 04:05:00,
2013-08-04 00:09:00,77.3,76.1,30.13,ENE,70,0.0,0.0,96,0.00,,,0.00,Wunderground v.1.15,2013-08-04 04:09:00,
2013-08-04 00:15:00,77.3,76.1,30.13,ENE,70,0.0,0.0,96,0.00,,,0.00,Wunderground v.1.15,2013-08-04 04:15:00,
2013-08-04 00:20:00,77.4,76.2,30.12,ENE,70,0.0,0.0,96,0.00,,,0.00,Wunderground v.1.15,2013-08-04 04:20:00,
2013-08-04 00:25:00,77.3,76.1,30.12,ENE,70,0.0,0.0,96,0.00,,,0.00,Wunderground v.1.15,2013-08-04 04:25:00,
2013-08-04 00:30:00,77.4,76.2,30.12,ENE,70,0.0,0.0,96,0.00,,,0.00,Wunderground v.1.15,2013-08-04 04:30:00,
2013-08-04 00:40:00,77.4,76.2,30.12,ENE,70,0.0,0.0,96,0.00,,,0.00,Wunderground v.1.15,2013-08-04 04:40:00,
2013-08-04 00:45:00,77.5,76.0,30.13,ENE,70,0.0,0.0,95,0.00,,,0.00,Wunderground v.1.15,2013-08-04 04:45:00,
2013-08-04 00:50:00,77.5,76.0,30.13,ENE,70,0.0,0.0,95,0.00,,,0.00,Wunderground v.1.15,2013-08-04 04:50:00,
2013-08-04 00:55:00,77.5,76.0,30.12,ENE,70,0.0,0.0,95,0.00,,,0.00,Wunderground v.1.15,2013-08-04 04:55:00,
2013-08-04 01:00:00,77.5,76.0,30.12,ENE,70,0.0,0.0,95,0.00,,,0.00,Wunderground v.1.15,2013-08-04 05:00:00,
2013-08-04 01:10:00,77.5,76.0,30.12,ENE,70,0.0,0.0,95,0.00,,,0.00,Wunderground v.1.15,2013-08-04 05:10:00,
2013-08-04 01:15:00,77.6,76.1,30.12,ENE,70,0.0,0.0,95,0.00,,,0.00,Wunderground v.1.15,2013-08-04 05:15:00,
2013-08-04 01:20:00,77.5,76.0,30.11,ENE,70,0.0,0.0,95,0.00,,,0.00,Wunderground v.1.15,2013-08-04 05:20:00,
2013-08-04 01:30:00,77.6,76.1,30.11,ENE,70,0.0,0.0,95,0.00,,,0.00,Wunderground v.1.15,2013-08-04 05:30:00,
2013-08-04 01:35:00,77.5,76.0,30.11,ENE,70,0.0,0.0,95,0.00,,,0.00,Wunderground v.1.15,2013-08-04 05:35:00,
2013-08-04 01:40:00,77.5,76.0,30.11,ENE,70,0.0,0.0,95,0.00,,,0.00,Wunderground v.1.15,2013-08-04 05:40:00,
2013-08-04 01:50:00,77.4,75.9,30.11,ENE,70,0.0,0.0,95,0.00,,,0.00,Wunderground v.1.15,2013-08-04 05:50:00,
2013-08-04 01:55:00,77.4,75.9,30.11,ENE,70,0.0,0.0,95,0.00,,,0.00,Wunderground v.1.15,2013-08-04 05:55:00,
2013-08-04 02:00:00,77.4,75.9,30.10,ENE,70,0.0,0.0,95,0.00,,,0.00,Wunderground v.1.15,2013-08-04 06:00:00,
2013-08-04 02:10:00,77.3,75.8,30.10,ENE,70,0.0,0.0,95,0.00,,,0.00,Wunderground v.1.15,2013-08-04 06:10:00,
2013-08-04 02:15:00,77.3,75.8,30.10,ENE,70,0.0,0.0,95,0.00,,,0.00,Wunderground v.1.15,2013-08-04 06:15:00,
2013-08-04 02:25:00,77.2,75.7,30.10,ENE,70,0.0,0.0,95,0.00,,,0.00,Wunderground v.1.15,2013-08-04 06:25:00,
2013-08-04 02:30:00,77.2,75.7,30.10,ENE,70,0.0,0.0,95,0.00,,,0.00,Wunderground v.1.15,2013-08-04 06:30:00,
2013-08-04 02:35:00,77.2,75.3,30.10,ENE,70,0.0,0.0,94,0.00,,,0.00,Wunderground v.1.15,2013-08-04 06:35:00,
2013-08-04 02:40:00,77.2,75.3,30.10,ENE,70,0.0,0.0,94,0.00,,,0.00,Wunderground v.1.15,2013-08-04 06:40:00,
2013-08-04 02:45:00,77.2,75.3,30.10,ENE,70,0.0,0.0,94,0.00,,,0.00,Wunderground v.1.15,2013-08-04 06:45:00,
2013-08-04 02:55:00,77.2,75.3,30.09,ENE,70,0.0,0.0,94,0.00,,,0.00,Wunderground v.1.15,2013-08-04 06:55:00,
2013-08-04 03:00:00,77.2,75.3,30.09,ENE,70,0.0,0.0,94,0.00,,,0.00,Wunderground v.1.15,2013-08-04 07:00:00,
2013-08-04 03:10:00,77.1,75.2,30.08,ENE,70,0.0,0.0,94,0.00,,,0.00,Wunderground v.1.15,2013-08-04 07:10:00,
2013-08-04 03:15:00,77.1,75.2,30.08,ENE,70,0.0,0.0,94,0.00,,,0.00,Wunderground v.1.15,2013-08-04 07:15:00,
2013-08-04 03:20:00,77.2,75.3,30.08,ENE,70,0.0,0.0,94,0.00,,,0.00,Wunderground v.1.15,2013-08-04 07:20:00,
2013-08-04 03:30:00,77.2,75.3,30.08,ENE,70,0.0,0.0,94,0.00,,,0.00,Wunderground v.1.15,2013-08-04 07:30:00,
2013-08-04 03:34:00,77.2,75.3,30.08,ENE,70,0.0,0.0,94,0.00,,,0.00,Wunderground v.1.15,2013-08-04 07:34:00,
2013-08-04 03:39:00,77.2,75.3,30.08,ENE,70,0.0,0.0,94,0.00,,,0.00,Wunderground v.1.15,2013-08-04 07:39:00,
2013-08-04 03:44:00,77.2,75.3,30.08,ENE,70,0.0,0.0,94,0.00,,,0.00,Wunderground v.1.15,2013-08-04 07:44:00,
2013-08-04 03:50:00,77.1,75.2,30.08,ENE,70,0.0,0.0,94,0.00,,,0.00,Wunderground v.1.15,2013-08-04 07:50:00,
2013-08-04 03:55:00,77.1,75.6,30.08,ENE,70,0.0,0.0,95,0.00,,,0.00,Wunderground v.1.15,2013-08-04 07:55:00,
2013-08-04 04:00:00,77.1,75.6,30.08,ENE,70,0.0,0.0,95,0.00,,,0.00,Wunderground v.1.15,2013-08-04 08:00:00,
2013-08-04 04:10:00,77.1,75.6,30.08,ENE,70,0.0,0.0,95,0.00,,,0.00,Wunderground v.1.15,2013-08-04 08:10:00,
2013-08-04 04:15:00,77.0,75.5,30.08,ENE,70,0.0,0.0,95,0.00,,,0.00,Wunderground v.1.15,2013-08-04 08:15:00,
2013-08-04 04:20:00,76.9,75.4,30.08,ENE,70,0.0,0.0,95,0.00,,,0.00,Wunderground v.1.15,2013-08-04 08:20:00,
2013-08-04 04:25:00,76.8,75.3,30.07,ENE,70,0.0,0.0,95,0.00,,,0.00,Wunderground v.1.15,2013-08-04 08:25:00,
2013-08-04 04:30:00,76.8,75.3,30.07,ENE,70,0.0,0.0,95,0.00,,,0.00,Wunderground v.1.15,2013-08-04 08:30:00,
2013-08-04 04:39:00,76.6,75.4,30.07,ENE,70,0.0,0.0,96,0.00,,,0.00,Wunderground v.1.15,2013-08-04 08:39:00,
2013-08-04 04:44:00,76.6,75.4,30.07,ENE,70,0.0,0.0,96,0.00,,,0.00,Wunderground v.1.15,2013-08-04 08:44:00,
2013-08-04 04:50:00,76.6,75.4,30.07,ENE,70,0.0,0.0,96,0.00,,,0.00,Wunderground v.1.15,2013-08-04 08:50:00,
2013-08-04 04:55:00,76.6,75.4,30.07,ENE,70,0.0,0.0,96,0.00,,,0.00,Wunderground v.1.15,2013-08-04 08:55:00,
2013-08-04 05:00:00,76.6,75.4,30.07,ENE,70,0.0,0.0,96,0.00,,,0.00,Wunderground v.1.15,2013-08-04 09:00:00,
2013-08-04 05:10:00,76.6,75.4,30.07,ENE,70,0.0,0.0,96,0.00,,,0.00,Wunderground v.1.15,2013-08-04 09:10:00,
2013-08-04 05:20:00,76.6,75.4,30.07,ENE,70,0.0,0.0,96,0.00,,,0.00,Wunderground v.1.15,2013-08-04 09:20:00,
2013-08-04 05:25:00,76.6,75.4,30.07,ENE,70,0.0,0.0,96,0.00,,,0.00,Wunderground v.1.15,2013-08-04 09:25:00,
2013-08-04 05:30:00,76.7,75.5,30.07,ENE,70,0.0,0.0,96,0.00,,,0.00,Wunderground v.1.15,2013-08-04 09:30:00,
2013-08-04 05:35:00,76.7,75.2,30.07,ENE,70,0.0,0.0,95,0.00,,,0.00,Wunderground v.1.15,2013-08-04 09:35:00,
2013-08-04 05:45:00,76.7,75.2,30.07,ENE,70,0.0,0.0,95,0.00,,,0.00,Wunderground v.1.15,2013-08-04 09:45:00,
2013-08-04 05:50:00,76.7,75.2,30.07,ENE,70,0.0,0.0,95,0.00,,,0.00,Wunderground v.1.15,2013-08-04 09:50:00,
2013-08-04 06:00:00,76.8,75.3,30.07,ENE,70,0.0,0.0,95,0.00,,,0.00,Wunderground v.1.15,2013-08-04 10:00:00,
2013-08-04 06:10:00,76.9,75.4,30.07,ENE,70,0.0,0.0,95,0.00,,,0.00,Wunderground v.1.15,2013-08-04 10:10:00,
2013-08-04 06:20:00,76.8,75.3,30.08,ENE,70,0.0,0.0,95,0.00,,,0.00,Wunderground v.1.15,2013-08-04 10:20:00,
2013-08-04 06:25:00,76.8,75.6,30.08,ENE,70,0.0,0.0,96,0.00,,,0.00,Wunderground v.1.15,2013-08-04 10:25:00,
2013-08-04 06:35:00,76.8,75.3,30.09,ENE,70,0.0,0.0,95,0.00,,,0.00,Wunderground v.1.15,2013-08-04 10:35:00,
2013-08-04 06:40:00,76.8,75.3,30.09,ENE,70,0.0,0.0,95,0.00,,,0.00,Wunderground v.1.15,2013-08-04 10:40:00,
2013-08-04 06:50:00,76.8,75.6,30.09,ENE,70,0.0,0.0,96,0.00,,,0.00,Wunderground v.1.15,2013-08-04 10:50:00,
2013-08-04 06:55:00,76.8,75.6,30.09,ENE,70,0.0,0.0,96,0.00,,,0.00,Wunderground v.1.15,2013-08-04 10:55:00,
2013-08-04 07:00:00,76.8,75.6,30.09,ENE,70,0.0,0.0,96,0.00,,,0.00,Wunderground v.1.15,2013-08-04 11:00:00,
2013-08-04 07:10:00,76.7,75.5,30.09,ENE,70,0.0,0.0,96,0.00,,,0.00,Wunderground v.1.15,2013-08-04 11:10:00,
2013-08-04 07:15:00,76.7,75.5,30.09,ENE,70,0.0,0.0,96,0.00,,,0.00,Wunderground v.1.15,2013-08-04 11:15:00,
2013-08-04 07:24:00,76.9,75.7,30.09,ENE,70,0.0,0.0,96,0.00,,,0.00,Wunderground v.1.15,2013-08-04 11:24:00,
2013-08-04 07:29:00,76.9,75.7,30.09,ENE,70,0.0,0.0,96,0.00,,,0.00,Wunderground v.1.15,2013-08-04 11:29:00,
2013-08-04 07:40:00,77.5,76.3,30.10,ENE,70,0.0,0.0,96,0.00,,,0.00,Wunderground v.1.15,2013-08-04 11:40:00,
2013-08-04 07:45:00,77.9,76.4,30.10,ENE,70,0.0,0.0,95,0.00,,,0.00,Wunderground v.1.15,2013-08-04 11:45:00,
2013-08-04 07:50:00,78.2,76.6,30.10,ENE,70,0.0,0.0,95,0.00,,,0.00,Wunderground v.1.15,2013-08-04 11:50:00,
2013-08-04 08:00:00,79.1,77.2,30.10,ENE,70,0.0,0.0,94,0.00,,,0.00,Wunderground v.1.15,2013-08-04 12:00:00,
2013-08-04 08:10:00,80.0,77.5,30.10,ENE,70,0.0,0.0,92,0.00,,,0.00,Wunderground v.1.15,2013-08-04 12:10:00,
2013-08-04 08:15:00,80.2,77.3,30.10,ENE,70,0.0,0.0,91,0.00,,,0.00,Wunderground v.1.15,2013-08-04 12:15:00,
2013-08-04 08:20:00,80.5,77.6,30.10,ENE,70,0.0,0.0,91,0.00,,,0.00,Wunderground v.1.15,2013-08-04 12:20:00,
2013-08-04 08:30:00,81.2,78.0,30.11,ENE,70,0.0,0.0,90,0.00,,,0.00,Wunderground v.1.15,2013-08-04 12:30:00,
2013-08-04 08:35:00,81.5,78.3,30.11,ENE,70,0.0,0.0,90,0.00,,,0.00,Wunderground v.1.15,2013-08-04 12:35:00,
2013-08-04 08:40:00,82.2,78.6,30.11,ENE,70,0.0,0.0,89,0.00,,,0.00,Wunderground v.1.15,2013-08-04 12:40:00,
2013-08-04 08:45:00,82.7,78.8,30.11,ENE,70,0.0,0.0,88,0.00,,,0.00,Wunderground v.1.15,2013-08-04 12:45:00,
2013-08-04 08:49:00,83.2,78.9,30.12,ENE,70,0.0,0.0,87,0.00,,,0.00,Wunderground v.1.15,2013-08-04 12:49:00,
2013-08-04 08:55:00,83.8,79.2,30.11,ENE,70,0.0,0.0,86,0.00,,,0.00,Wunderground v.1.15,2013-08-04 12:55:00,
2013-08-04 09:00:00,84.4,79.4,30.11,ENE,70,0.0,0.0,85,0.00,,,0.00,Wunderground v.1.15,2013-08-04 13:00:00,
2013-08-04 09:10:00,84.7,79.3,30.11,ENE,70,0.0,0.0,84,0.00,,,0.00,Wunderground v.1.15,2013-08-04 13:10:00,
2013-08-04 09:15:00,84.9,79.2,30.11,ENE,70,0.0,0.0,83,0.00,,,0.00,Wunderground v.1.15,2013-08-04 13:15:00,
2013-08-04 09:20:00,84.7,79.0,30.11,ENE,70,0.0,0.0,83,0.00,,,0.00,Wunderground v.1.15,2013-08-04 13:20:00,
2013-08-04 09:25:00,84.5,79.1,30.11,ENE,70,0.0,0.0,84,0.00,,,0.00,Wunderground v.1.15,2013-08-04 13:25:00,
2013-08-04 09:30:00,85.2,79.1,30.11,ENE,70,0.0,0.0,82,0.00,,,0.00,Wunderground v.1.15,2013-08-04 13:30:00,
2013-08-04 09:39:00,84.9,78.0,30.11,ENE,70,1.0,1.0,80,0.00,,,0.00,Wunderground v.1.15,2013-08-04 13:39:00,
2013-08-04 09:45:00,85.0,78.9,30.11,ENE,70,1.0,1.0,82,0.00,,,0.00,Wunderground v.1.15,2013-08-04 13:45:00,
2013-08-04 09:49:00,85.1,78.2,30.11,ENE,70,1.0,2.0,80,0.00,,,0.00,Wunderground v.1.15,2013-08-04 13:49:00,
2013-08-04 09:55:00,85.0,78.1,30.11,ENE,70,2.0,4.0,80,0.00,,,0.00,Wunderground v.1.15,2013-08-04 13:55:00,
2013-08-04 10:00:00,84.5,78.0,30.11,ENE,70,3.0,3.0,81,0.00,,,0.00,Wunderground v.1.15,2013-08-04 14:00:00,
2013-08-04 10:10:00,85.0,78.1,30.12,ENE,70,0.0,4.0,80,0.00,,,0.00,Wunderground v.1.15,2013-08-04 14:10:00,
2013-08-04 10:15:00,85.4,77.0,30.11,ENE,70,1.0,4.0,76,0.00,,,0.00,Wunderground v.1.15,2013-08-04 14:15:00,
2013-08-04 10:20:00,85.5,77.5,30.11,ENE,70,1.0,1.0,77,0.00,,,0.00,Wunderground v.1.15,2013-08-04 14:20:00,
2013-08-04 10:25:00,86.3,77.4,30.11,ENE,69,1.0,4.0,75,0.00,,,0.00,Wunderground v.1.15,2013-08-04 14:25:00,
2013-08-04 10:30:00,87.5,77.4,30.11,ENE,69,0.0,4.0,72,0.00,,,0.00,Wunderground v.1.15,2013-08-04 14:30:00,
2013-08-04 10:35:00,87.7,77.1,30.11,ENE,69,0.0,4.0,71,0.00,,,0.00,Wunderground v.1.15,2013-08-04 14:35:00,
2013-08-04 10:44:00,88.0,77.8,30.11,ENE,69,1.0,4.0,72,0.00,,,0.00,Wunderground v.1.15,2013-08-04 14:44:00,
2013-08-04 10:50:00,88.3,78.1,30.11,ENE,69,1.0,1.0,72,0.00,,,0.00,Wunderground v.1.15,2013-08-04 14:50:00,
2013-08-04 10:55:00,89.1,78.5,30.11,ENE,69,0.0,4.0,71,0.00,,,0.00,Wunderground v.1.15,2013-08-04 14:55:00,
2013-08-04 11:00:00,87.8,76.8,30.11,ENE,69,2.0,2.0,70,0.00,,,0.00,Wunderground v.1.15,2013-08-04 15:00:00,
2013-08-04 11:10:00,87.6,77.9,30.11,ENE,69,1.0,1.0,73,0.00,,,0.00,Wunderground v.1.15,2013-08-04 15:10:00,
2013-08-04 11:20:00,88.5,77.0,30.11,ENE,69,1.0,7.0,69,0.00,,,0.00,Wunderground v.1.15,2013-08-04 15:20:00,
2013-08-04 11:30:00,89.7,77.3,30.10,ENE,69,2.0,2.0,67,0.00,,,0.00,Wunderground v.1.15,2013-08-04 15:30:00,
2013-08-04 11:35:00,90.3,77.4,30.11,ENE,69,0.0,4.0,66,0.00,,,0.00,Wunderground v.1.15,2013-08-04 15:35:00,
2013-08-04 11:40:00,89.0,77.5,30.11,SSE,155,2.0,9.0,69,0.00,,,0.00,Wunderground v.1.15,2013-08-04 15:40:00,
2013-08-04 11:49:00,82.3,77.3,30.11,SW,233,10.0,10.0,85,0.00,,,0.00,Wunderground v.1.15,2013-08-04 15:49:00,
2013-08-04 11:54:00,82.0,77.7,30.11,SW,233,6.0,10.0,87,0.00,,,0.00,Wunderground v.1.15,2013-08-04 15:54:00,
2013-08-04 12:00:00,82.3,77.3,30.10,SW,233,5.0,5.0,85,0.00,,,0.00,Wunderground v.1.15,2013-08-04 16:00:00,
2013-08-04 12:10:00,83.8,78.4,30.10,SW,233,0.0,9.0,84,0.00,,,0.00,Wunderground v.1.15,2013-08-04 16:10:00,
2013-08-04 12:14:00,84.5,78.4,30.10,SW,233,0.0,9.0,82,0.00,,,0.00,Wunderground v.1.15,2013-08-04 16:14:00,
2013-08-04 12:25:00,86.4,77.9,30.10,SW,233,0.0,9.0,76,0.00,,,0.00,Wunderground v.1.15,2013-08-04 16:25:00,
2013-08-04 12:29:00,86.8,77.5,30.10,SW,233,1.0,1.0,74,0.00,,,0.00,Wunderground v.1.15,2013-08-04 16:29:00,
2013-08-04 12:35:00,87.8,78.5,30.10,SW,233,1.0,9.0,74,0.00,,,0.00,Wunderground v.1.15,2013-08-04 16:35:00,
2013-08-04 12:40:00,88.3,78.5,30.10,SW,233,1.0,9.0,73,0.00,,,0.00,Wunderground v.1.15,2013-08-04 16:40:00,
2013-08-04 12:44:00,88.5,78.3,30.10,SW,233,1.0,9.0,72,0.00,,,0.00,Wunderground v.1.15,2013-08-04 16:44:00,
2013-08-04 12:50:00,89.6,78.1,30.10,SW,233,1.0,9.0,69,0.00,,,0.00,Wunderground v.1.15,2013-08-04 16:50:00,
2013-08-04 13:00:00,89.8,78.7,30.09,SW,217,3.0,3.0,70,0.00,,,0.00,Wunderground v.1.15,2013-08-04 17:00:00,
2013-08-04 13:10:00,88.6,78.8,30.10,SW,217,3.0,3.0,73,0.00,,,0.00,Wunderground v.1.15,2013-08-04 17:10:00,
2013-08-04 13:19:00,90.9,78.0,30.08,SW,218,1.0,5.0,66,0.00,,,0.00,Wunderground v.1.15,2013-08-04 17:19:00,
2013-08-04 13:25:00,91.6,77.2,30.08,SW,218,1.0,5.0,63,0.00,,,0.00,Wunderground v.1.15,2013-08-04 17:25:00,
2013-08-04 13:30:00,92.1,78.2,30.08,SW,218,0.0,5.0,64,0.00,,,0.00,Wunderground v.1.15,2013-08-04 17:30:00,
2013-08-04 13:40:00,91.1,78.6,30.08,SW,218,1.0,5.0,67,0.00,,,0.00,Wunderground v.1.15,2013-08-04 17:40:00,
2013-08-04 13:45:00,90.0,77.6,30.08,SW,218,2.0,5.0,67,0.00,,,0.00,Wunderground v.1.15,2013-08-04 17:45:00,
2013-08-04 13:50:00,90.4,78.4,30.08,SW,218,2.0,5.0,68,0.00,,,0.00,Wunderground v.1.15,2013-08-04 17:50:00,
2013-08-04 13:55:00,90.6,77.2,30.08,SW,218,1.0,5.0,65,0.00,,,0.00,Wunderground v.1.15,2013-08-04 17:55:00,
2013-08-04 14:00:00,90.9,79.8,30.08,SW,218,1.0,2.0,70,0.00,,,0.00,Wunderground v.1.15,2013-08-04 18:00:00,
2013-08-04 14:10:00,90.2,78.6,30.07,SW,218,1.0,1.0,69,0.00,,,0.00,Wunderground v.1.15,2013-08-04 18:10:00,
2013-08-04 14:15:00,88.7,79.3,30.07,SW,218,1.0,2.0,74,0.00,,,0.00,Wunderground v.1.15,2013-08-04 18:15:00,
2013-08-04 14:20:00,87.1,78.6,30.06,SW,218,1.0,1.0,76,0.00,,,0.00,Wunderground v.1.15,2013-08-04 18:20:00,
2013-08-04 14:25:00,86.5,79.2,30.06,SW,218,0.0,2.0,79,0.00,,,0.00,Wunderground v.1.15,2013-08-04 18:25:00,
2013-08-04 14:30:00,86.5,79.2,30.06,SW,218,1.0,1.0,79,0.00,,,0.00,Wunderground v.1.15,2013-08-04 18:30:00,
2013-08-04 14:40:00,87.6,79.1,30.05,SW,218,1.0,4.0,76,0.00,,,0.00,Wunderground v.1.15,2013-08-04 18:40:00,
2013-08-04 14:45:00,88.1,79.6,30.05,SW,219,3.0,4.0,76,0.00,,,0.00,Wunderground v.1.15,2013-08-04 18:45:00,
2013-08-04 14:50:00,88.9,78.7,30.04,SW,219,4.0,6.0,72,0.00,,,0.00,Wunderground v.1.15,2013-08-04 18:50:00,
2013-08-04 14:55:00,88.7,78.1,30.04,SW,219,4.0,6.0,71,0.00,,,0.00,Wunderground v.1.15,2013-08-04 18:55:00,
2013-08-04 15:00:00,88.5,78.3,30.03,SW,219,4.0,4.0,72,0.00,,,0.00,Wunderground v.1.15,2013-08-04 19:00:00,
2013-08-04 15:10:00,89.6,78.9,30.03,SW,216,2.0,8.0,71,0.00,,,0.00,Wunderground v.1.15,2013-08-04 19:10:00,
2013-08-04 15:14:00,90.0,78.5,30.03,SW,216,3.0,8.0,69,0.00,,,0.00,Wunderground v.1.15,2013-08-04 19:14:00,
2013-08-04 15:20:00,89.9,77.9,30.03,SW,217,5.0,9.0,68,0.00,,,0.00,Wunderground v.1.15,2013-08-04 19:20:00,
2013-08-04 15:25:00,89.8,78.3,30.02,SW,219,7.0,9.0,69,0.00,,,0.00,Wunderground v.1.15,2013-08-04 19:25:00,
2013-08-04 15:29:00,89.9,77.9,30.02,SW,219,6.0,10.0,68,0.00,,,0.00,Wunderground v.1.15,2013-08-04 19:29:00,
2013-08-04 15:34:00,89.0,76.6,30.03,SW,221,7.0,11.0,67,0.00,,,0.00,Wunderground v.1.15,2013-08-04 19:34:00,
2013-08-04 15:44:00,88.6,76.7,30.03,SW,223,7.0,12.0,68,0.00,,,0.00,Wunderground v.1.15,2013-08-04 19:44:00,
2013-08-04 15:50:00,88.1,76.6,30.03,SW,222,7.0,10.0,69,0.00,,,0.00,Wunderground v.1.15,2013-08-04 19:50:00,
2013-08-04 15:55:00,87.6,76.6,30.03,SW,221,9.0,11.0,70,0.00,,,0.00,Wunderground v.1.15,2013-08-04 19:55:00,
2013-08-04 16:00:00,87.2,77.1,30.03,SW,221,9.0,12.0,72,0.00,,,0.00,Wunderground v.1.15,2013-08-04 20:00:00,
2013-08-04 16:10:00,86.9,78.0,30.03,SW,223,9.0,12.0,75,0.00,,,0.00,Wunderground v.1.15,2013-08-04 20:10:00,
2013-08-04 16:20:00,86.5,77.6,30.03,SW,224,9.0,12.0,75,0.00,,,0.00,Wunderground v.1.15,2013-08-04 20:20:00,
2013-08-04 16:25:00,86.3,77.8,30.03,SW,227,9.0,12.0,76,0.00,,,0.00,Wunderground v.1.15,2013-08-04 20:25:00,
2013-08-04 16:30:00,86.1,77.2,30.03,SW,228,10.0,10.0,75,0.00,,,0.00,Wunderground v.1.15,2013-08-04 20:30:00,
2013-08-04 16:35:00,85.9,77.5,30.04,SW,227,10.0,12.0,76,0.00,,,0.00,Wunderground v.1.15,2013-08-04 20:35:00,
2013-08-04 16:40:00,85.6,77.2,30.04,SW,228,8.0,8.0,76,0.00,,,0.00,Wunderground v.1.15,2013-08-04 20:40:00,
2013-08-04 16:45:00,85.4,77.4,30.03,SW,226,8.0,12.0,77,0.00,,,0.00,Wunderground v.1.15,2013-08-04 20:45:00,
2013-08-04 16:55:00,85.2,77.2,30.03,SW,226,8.0,12.0,77,0.00,,,0.00,Wunderground v.1.15,2013-08-04 20:55:00,
2013-08-04 17:00:00,85.0,77.4,30.03,SW,227,8.0,8.0,78,0.00,,,0.00,Wunderground v.1.15,2013-08-04 21:00:00,
2013-08-04 17:10:00,84.8,77.6,30.03,SW,226,8.0,12.0,79,0.00,,,0.00,Wunderground v.1.15,2013-08-04 21:10:00,
2013-08-04 17:14:00,84.7,77.8,30.03,SW,226,7.0,12.0,80,0.00,,,0.00,Wunderground v.1.15,2013-08-04 21:14:00,
2013-08-04 17:20:00,84.7,77.8,30.04,SW,226,6.0,6.0,80,0.00,,,0.00,Wunderground v.1.15,2013-08-04 21:20:00,
2013-08-04 17:30:00,84.6,77.7,30.04,SW,226,6.0,12.0,80,0.00,,,0.00,Wunderground v.1.15,2013-08-04 21:30:00,
2013-08-04 17:35:00,84.5,77.3,30.04,SW,225,8.0,12.0,79,0.00,,,0.00,Wunderground v.1.15,2013-08-04 21:35:00,
2013-08-04 17:40:00,84.4,77.6,30.04,SW,225,8.0,8.0,80,0.00,,,0.00,Wunderground v.1.15,2013-08-04 21:40:00,
2013-08-04 17:45:00,84.3,77.8,30.03,SW,225,7.0,12.0,81,0.00,,,0.00,Wunderground v.1.15,2013-08-04 21:45:00,
2013-08-04 17:50:00,84.3,77.8,30.03,SW,225,6.0,12.0,81,0.00,,,0.00,Wunderground v.1.15,2013-08-04 21:50:00,
2013-08-04 18:00:00,84.2,78.1,30.03,SW,225,7.0,7.0,82,0.00,,,0.00,Wunderground v.1.15,2013-08-04 22:00:00,
2013-08-04 18:10:00,84.3,77.8,30.03,SW,225,6.0,8.0,81,0.00,,,0.00,Wunderground v.1.15,2013-08-04 22:10:00,
2013-08-04 18:15:00,84.4,78.3,30.04,SW,225,6.0,8.0,82,0.00,,,0.00,Wunderground v.1.15,2013-08-04 22:15:00,
2013-08-04 18:20:00,84.4,78.3,30.04,SW,225,5.0,8.0,82,0.00,,,0.00,Wunderground v.1.15,2013-08-04 22:20:00,
2013-08-04 18:25:00,84.5,78.4,30.04,SW,225,3.0,8.0,82,0.00,,,0.00,Wunderground v.1.15,2013-08-04 22:25:00,
2013-08-04 18:35:00,84.5,78.0,30.04,SW,225,4.0,8.0,81,0.00,,,0.00,Wunderground v.1.15,2013-08-04 22:35:00,
2013-08-04 18:40:00,84.4,77.9,30.05,SW,225,5.0,8.0,81,0.00,,,0.00,Wunderground v.1.15,2013-08-04 22:40:00,
2013-08-04 18:45:00,84.5,78.0,30.05,SW,225,5.0,8.0,81,0.00,,,0.00,Wunderground v.1.15,2013-08-04 22:45:00,
2013-08-04 18:50:00,84.5,78.0,30.05,SW,225,3.0,8.0,81,0.00,,,0.00,Wunderground v.1.15,2013-08-04 22:50:00,
2013-08-04 18:55:00,84.4,77.9,30.04,SW,225,4.0,8.0,81,0.00,,,0.00,Wunderground v.1.15,2013-08-04 22:55:00,
2013-08-04 19:00:00,84.3,77.8,30.04,SW,225,5.0,7.0,81,0.00,,,0.00,Wunderground v.1.15,2013-08-04 23:00:00,
2013-08-04 19:10:00,84.2,78.1,30.04,SW,225,5.0,5.0,82,0.00,,,0.00,Wunderground v.1.15,2013-08-04 23:10:00,
2013-08-04 19:15:00,84.0,78.3,30.03,SW,225,4.0,7.0,83,0.00,,,0.00,Wunderground v.1.15,2013-08-04 23:15:00,
2013-08-04 19:20:00,83.9,78.2,30.03,SW,225,4.0,4.0,83,0.00,,,0.00,Wunderground v.1.15,2013-08-04 23:20:00,
2013-08-04 19:25:00,83.8,78.1,30.03,SW,225,4.0,7.0,83,0.00,,,0.00,Wunderground v.1.15,2013-08-04 23:25:00,
2013-08-04 19:35:00,83.7,78.3,30.04,SW,225,3.0,7.0,84,0.00,,,0.00,Wunderground v.1.15,2013-08-04 23:35:00,
2013-08-04 19:40:00,83.6,78.2,30.03,SW,225,3.0,3.0,84,0.00,,,0.00,Wunderground v.1.15,2013-08-04 23:40:00,
2013-08-04 19:45:00,83.4,78.1,30.03,SW,225,3.0,4.0,84,0.00,,,0.00,Wunderground v.1.15,2013-08-04 23:45:00,
2013-08-04 19:50:00,83.4,78.1,30.04,SW,225,4.0,4.0,84,0.00,,,0.00,Wunderground v.1.15,2013-08-04 23:50:00,
2013-08-04 19:55:00,83.4,78.1,30.04,SW,225,3.0,7.0,84,0.00,,,0.00,Wunderground v.1.15,2013-08-04 23:55:00,
2013-08-04 20:00:00,83.3,78.0,30.04,SW,225,3.0,5.0,84,0.00,,,0.00,Wunderground v.1.15,2013-08-05 00:00:00,
2013-08-04 20:09:00,83.3,78.3,30.04,SW,225,3.0,3.0,85,0.00,,,0.00,Wunderground v.1.15,2013-08-05 00:09:00,
2013-08-04 20:14:00,83.2,78.2,30.04,SW,225,2.0,5.0,85,0.00,,,0.00,Wunderground v.1.15,2013-08-05 00:14:00,
2013-08-04 20:19:00,83.2,78.2,30.04,SW,225,1.0,1.0,85,0.00,,,0.00,Wunderground v.1.15,2013-08-05 00:19:00,
2013-08-04 20:25:00,83.1,78.5,30.05,SW,225,1.0,2.0,86,0.00,,,0.00,Wunderground v.1.15,2013-08-05 00:25:00,
2013-08-04 20:29:00,83.0,78.4,30.05,SW,225,0.0,5.0,86,0.00,,,0.00,Wunderground v.1.15,2013-08-05 00:29:00,
2013-08-04 20:35:00,82.9,78.3,30.05,SW,225,0.0,5.0,86,0.00,,,0.00,Wunderground v.1.15,2013-08-05 00:35:00,
2013-08-04 20:40:00,82.9,78.3,30.05,SW,225,0.0,5.0,86,0.00,,,0.00,Wunderground v.1.15,2013-08-05 00:40:00,
2013-08-04 20:49:00,82.7,78.1,30.05,SW,225,3.0,3.0,86,0.00,,,0.00,Wunderground v.1.15,2013-08-05 00:49:00,
2013-08-04 20:55:00,82.6,78.0,30.06,SW,225,3.0,5.0,86,0.00,,,0.00,Wunderground v.1.15,2013-08-05 00:55:00,
2013-08-04 21:00:00,82.5,77.9,30.06,SW,225,2.0,4.0,86,0.00,,,0.00,Wunderground v.1.15,2013-08-05 01:00:00,
2013-08-04 21:10:00,82.7,78.1,30.05,SW,225,4.0,4.0,86,0.00,,,0.00,Wunderground v.1.15,2013-08-05 01:10:00,
2013-08-04 21:14:00,82.7,78.1,30.06,SW,225,4.0,4.0,86,0.00,,,0.00,Wunderground v.1.15,2013-08-05 01:14:00,
2013-08-04 21:25:00,82.5,77.9,30.05,SW,225,2.0,3.0,86,0.00,,,0.00,Wunderground v.1.15,2013-08-05 01:25:00,
2013-08-04 21:29:00,82.4,77.8,30.06,SW,225,2.0,2.0,86,0.00,,,0.00,Wunderground v.1.15,2013-08-05 01:29:00,
2013-08-04 21:40:00,82.2,77.6,30.06,SW,225,1.0,2.0,86,0.00,,,0.00,Wunderground v.1.15,2013-08-05 01:40:00,
2013-08-04 21:45:00,82.4,77.8,30.06,SW,225,2.0,2.0,86,0.00,,,0.00,Wunderground v.1.15,2013-08-05 01:45:00,
2013-08-04 21:55:00,82.4,77.8,30.06,SW,225,0.0,2.0,86,0.00,,,0.00,Wunderground v.1.15,2013-08-05 01:55:00,
2013-08-04 22:00:00,82.4,77.8,30.07,SW,225,0.0,0.0,86,0.00,,,0.00,Wunderground v.1.15,2013-08-05 02:00:00,
2013-08-04 22:09:00,82.3,77.7,30.07,SW,225,0.0,0.0,86,0.00,,,0.00,Wunderground v.1.15,2013-08-05 02:09:00,
2013-08-04 22:15:00,82.3,78.4,30.07,SW,225,0.0,0.0,88,0.00,,,0.00,Wunderground v.1.15,2013-08-05 02:15:00,
2013-08-04 22:20:00,82.3,78.7,30.07,SW,225,0.0,0.0,89,0.00,,,0.00,Wunderground v.1.15,2013-08-05 02:20:00,
2013-08-04 22:29:00,82.1,78.9,30.07,SW,225,0.0,0.0,90,0.00,,,0.00,Wunderground v.1.15,2013-08-05 02:29:00,
2013-08-04 22:35:00,81.9,78.3,30.07,SW,225,0.0,0.0,89,0.00,,,0.00,Wunderground v.1.15,2013-08-05 02:35:00,
2013-08-04 22:40:00,81.8,78.2,30.07,SW,225,0.0,0.0,89,0.00,,,0.00,Wunderground v.1.15,2013-08-05 02:40:00,
2013-08-04 22:45:00,81.6,78.0,30.07,SW,225,0.0,0.0,89,0.00,,,0.00,Wunderground v.1.15,2013-08-05 02:45:00,
2013-08-04 22:55:00,81.4,78.5,30.07,SW,225,0.0,0.0,91,0.00,,,0.00,Wunderground v.1.15,2013-08-05 02:55:00,
2013-08-04 23:00:00,81.3,78.4,30.07,SW,225,0.0,0.0,91,0.00,,,0.00,Wunderground v.1.15,2013-08-05 03:00:00,
2013-08-04 23:10:00,81.2,78.3,30.07,SW,225,0.0,0.0,91,0.00,,,0.00,Wunderground v.1.15,2013-08-05 03:10:00,
2013-08-04 23:15:00,81.1,78.2,30.07,SW,225,0.0,0.0,91,0.00,,,0.00,Wunderground v.1.15,2013-08-05 03:15:00,
2013-08-04 23:20:00,81.1,78.2,30.07,SW,225,0.0,0.0,91,0.00,,,0.00,Wunderground v.1.15,2013-08-05 03:20:00,
2013-08-04 23:25:00,81.0,78.1,30.07,SW,225,0.0,0.0,91,0.00,,,0.00,Wunderground v.1.15,2013-08-05 03:25:00,
2013-08-04 23:35:00,81.0,78.1,30.07,SW,225,0.0,0.0,91,0.00,,,0.00,Wunderground v.1.15,2013-08-05 03:35:00,
2013-08-04 23:45:00,81.0,77.8,30.07,SW,225,0.0,0.0,90,0.00,,,0.00,Wunderground v.1.15,2013-08-05 03:45:00,
2013-08-04 23:50:00,80.9,78.0,30.07,SW,225,0.0,0.0,91,0.00,,,0.00,Wunderground v.1.15,2013-08-05 03:50:00,
2013-08-04 23:55:00,80.8,77.9,30.07,SW,225,0.0,0.0,91,0.00,,,0.00,Wunderground v.1.15,2013-08-05 03:55:00,